Time;durP1;ratioP1;P1;durP2;ratioP2;P2;SDS_P1;SDS_P2;PMS_P1;PMS_P2;Temp;Humidity;BMP_temperature;BMP_pressure;BME280_temperature;BME280_humidity;BME280_pressure;Samples;Min_cycle;Max_cycle;Signal;HPM_P1;HPM_P2
2021/04/24 00:02:03;;;;;;;;;;;;;;;20.73;42.84;101399.31;5095793;28;962;-58
2021/04/24 00:04:30;;;;;;;;;;;;;;;20.95;42.41;101396.09;5096193;28;787;-58
2021/04/24 00:06:55;;;;;;;;;;;;;;;20.94;42.38;101394.44;5096644;28;850;-58
2021/04/24 00:09:20;;;;;;;;;;;;;;;20.66;42.89;101398.78;5096585;28;755;-56
2021/04/24 00:11:46;;;;;;;;;;;;;;;20.40;43.36;101396.16;5091059;28;1159;-58
2021/04/24 00:14:11;;;;;;;;;;;;;;;20.68;42.62;101394.66;5075953;28;1059;-58
2021/04/24 00:16:37;;;;;;;;;;;;;;;20.58;42.85;101396.59;5083555;28;1985;-58
2021/04/24 00:19:03;;;;;;;;;;;;;;;20.63;42.87;101407.63;5115152;28;882;-58
2021/04/24 00:21:28;;;;;;;;;;;;;;;20.51;43.27;101403.28;5116778;28;755;-58
2021/04/24 00:23:53;;;;;;;;;;;;;;;20.65;42.93;101408.16;5116604;28;807;-59
2021/04/24 00:26:19;;;;;;;;;;;;;;;20.51;43.08;101402.47;5116600;28;754;-59
2021/04/24 00:28:44;;;;;;;;;;;;;;;20.64;42.70;101401.00;5116566;28;783;-60
2021/04/24 00:31:10;;;;;;;;;;;;;;;20.46;43.14;101405.25;5101360;28;1074;-60
2021/04/24 00:33:35;;;;;;;;;;;;;;;20.38;43.37;101420.47;5119958;28;1086;-59
2021/04/24 00:36:01;;;;;;;;;;;;;;;20.58;43.10;101418.72;5120226;28;1910;-59
2021/04/24 00:38:26;;;;;;;;;;;;;;;20.28;43.55;101423.28;5120201;28;802;-60
2021/04/24 00:40:52;;;;;;;;;;;;;;;20.59;43.05;101418.41;5101832;28;1160;-59
2021/04/24 00:43:17;;;;;;;;;;;;;;;20.49;43.26;101422.06;5120124;28;743;-59
2021/04/24 00:45:43;;;;;;;;;;;;;;;20.68;42.72;101418.69;5099085;28;1549;-59
2021/04/24 00:48:08;;;;;;;;;;;;;;;20.63;42.90;101424.22;5099416;28;962;-58
2021/04/24 00:50:34;;;;;;;;;;;;;;;20.73;42.59;101432.47;5099489;28;802;-59
2021/04/24 00:53:00;;;;;;;;;;;;;;;20.58;43.12;101429.75;5099701;28;810;-59
2021/04/24 00:55:25;;;;;;;;;;;;;;;20.92;42.30;101429.03;5099239;28;1969;-59
2021/04/24 00:57:51;;;;;;;;;;;;;;;20.84;42.39;101438.75;5099712;28;779;-57
2021/04/24 01:00:17;;;;;;;;;;;;;;;20.65;42.53;101428.34;5080849;28;849;-60
2021/04/24 01:02:42;;;;;;;;;;;;;;;20.65;42.58;101435.78;5098994;28;1020;-59
2021/04/24 01:05:09;;;;;;;;;;;;;;;20.69;42.59;101436.91;5080930;28;1106;-58
2021/04/24 01:07:34;;;;;;;;;;;;;;;20.37;43.23;101440.09;5099720;28;792;-58
2021/04/24 01:10:00;;;;;;;;;;;;;;;20.61;42.89;101446.59;5098970;28;783;-59
2021/04/24 01:12:25;;;;;;;;;;;;;;;20.69;42.65;101425.84;5089138;28;1174;-59
2021/04/24 01:14:50;;;;;;;;;;;;;;;20.71;42.52;101431.94;5078856;28;1210;-59
2021/04/24 01:17:16;;;;;;;;;;;;;;;20.83;42.33;101437.09;5087440;28;1913;-60
2021/04/24 01:19:41;;;;;;;;;;;;;;;20.68;42.56;101432.53;5099221;28;775;-59
2021/04/24 01:22:07;;;;;;;;;;;;;;;20.75;42.50;101441.31;5099164;28;797;-59
2021/04/24 01:24:32;;;;;;;;;;;;;;;20.68;42.71;101440.81;5099244;28;795;-60
2021/04/24 01:26:58;;;;;;;;;;;;;;;20.59;42.65;101436.94;5098823;28;878;-60
2021/04/24 01:29:23;;;;;;;;;;;;;;;20.64;42.83;101434.16;5098632;28;752;-59
2021/04/24 01:31:49;;;;;;;;;;;;;;;20.83;42.30;101426.88;5098387;28;970;-59
2021/04/24 01:34:14;;;;;;;;;;;;;;;20.58;42.90;101435.28;5080880;28;863;-59
2021/04/24 01:36:40;;;;;;;;;;;;;;;20.22;43.74;101429.97;5098968;28;1969;-58
2021/04/24 01:39:05;;;;;;;;;;;;;;;20.56;42.82;101446.63;5098591;28;811;-59
2021/04/24 01:41:31;;;;;;;;;;;;;;;20.26;43.67;101439.31;5098005;28;819;-59
2021/04/24 01:43:57;;;;;;;;;;;;;;;20.31;43.46;101431.84;5098385;28;886;-59
2021/04/24 01:46:22;;;;;;;;;;;;;;;20.32;43.25;101441.75;5098016;28;1636;-60
2021/04/24 01:48:48;;;;;;;;;;;;;;;20.61;42.83;101445.78;5080219;28;1280;-58
2021/04/24 01:51:13;;;;;;;;;;;;;;;20.35;43.46;101445.91;5098025;28;803;-59
2021/04/24 01:53:39;;;;;;;;;;;;;;;20.44;43.20;101440.59;5098392;28;834;-59
2021/04/24 01:56:05;;;;;;;;;;;;;;;20.20;43.67;101452.31;5098227;28;1913;-57
2021/04/24 01:58:30;;;;;;;;;;;;;;;20.50;43.01;101447.78;5098102;28;794;-59
2021/04/24 02:00:57;;;;;;;;;;;;;;;20.68;42.47;101452.69;5098135;28;823;-59
2021/04/24 02:03:22;;;;;;;;;;;;;;;20.66;42.42;101452.13;5097743;28;958;-58
2021/04/24 02:05:48;;;;;;;;;;;;;;;20.36;43.13;101444.81;5097920;28;842;-59
2021/04/24 02:08:23;;;;;;;;;;;;;;;20.27;43.46;101447.34;5098072;28;981;-58
2021/04/24 02:10:50;;;;;;;;;;;;;;;20.18;43.79;101449.00;5097820;28;859;-58
2021/04/24 02:13:19;;;;;;;;;;;;;;;20.37;43.30;101457.50;5080284;28;1211;-60
2021/04/24 02:15:45;;;;;;;;;;;;;;;20.46;42.87;101454.97;5077741;28;1886;-59
2021/04/24 02:18:10;;;;;;;;;;;;;;;20.42;43.17;101459.41;5094089;28;962;-60
2021/04/24 02:20:36;;;;;;;;;;;;;;;20.55;42.81;101457.97;5097795;28;767;-60
2021/04/24 02:23:01;;;;;;;;;;;;;;;20.39;43.05;101466.31;5097764;28;811;-60
2021/04/24 02:25:27;;;;;;;;;;;;;;;20.52;42.90;101460.19;5097636;28;858;-59
2021/04/24 02:27:52;;;;;;;;;;;;;;;20.47;43.01;101456.63;5097640;28;870;-59
2021/04/24 02:30:18;;;;;;;;;;;;;;;20.58;42.86;101462.91;5097741;28;871;-59
2021/04/24 02:32:44;;;;;;;;;;;;;;;20.30;43.27;101459.72;5096978;28;1013;-60
2021/04/24 02:35:10;;;;;;;;;;;;;;;20.45;42.85;101448.59;5097678;28;755;-61
2021/04/24 02:37:36;;;;;;;;;;;;;;;20.16;43.66;101460.34;5097522;28;878;-60
2021/04/24 02:40:02;;;;;;;;;;;;;;;20.12;43.52;101452.91;5097296;28;795;-59
2021/04/24 02:42:28;;;;;;;;;;;;;;;20.31;43.28;101444.81;5079412;28;1417;-59
2021/04/24 02:44:57;;;;;;;;;;;;;;;20.26;43.38;101451.19;5097425;28;839;-59
2021/04/24 02:47:22;;;;;;;;;;;;;;;20.12;43.57;101455.69;5096881;28;1641;-60
2021/04/24 02:49:48;;;;;;;;;;;;;;;20.07;43.75;101458.44;5097282;28;767;-60
2021/04/24 02:52:13;;;;;;;;;;;;;;;20.34;43.04;101458.06;5097028;28;823;-60
2021/04/24 02:54:39;;;;;;;;;;;;;;;20.00;43.86;101453.22;5096504;28;795;-60
2021/04/24 02:57:05;;;;;;;;;;;;;;;20.32;43.17;101452.00;5097188;28;1913;-60
2021/04/24 02:59:30;;;;;;;;;;;;;;;20.26;43.32;101455.88;5097010;28;843;-59
2021/04/24 03:01:56;;;;;;;;;;;;;;;20.31;43.17;101464.16;5096595;28;1001;-59
2021/04/24 03:04:21;;;;;;;;;;;;;;;20.37;42.96;101467.72;5097131;28;831;-59
2021/04/24 03:06:47;;;;;;;;;;;;;;;20.35;42.97;101459.72;5097056;28;872;-59
2021/04/24 03:09:12;;;;;;;;;;;;;;;20.36;42.96;101458.59;5096932;28;775;-56
2021/04/24 03:11:38;;;;;;;;;;;;;;;20.48;42.75;101463.78;5093157;28;1151;-59
2021/04/24 03:14:04;;;;;;;;;;;;;;;20.41;42.89;101463.28;5076536;28;1041;-59
2021/04/24 03:16:29;;;;;;;;;;;;;;;20.24;43.41;101455.34;5078823;28;1914;-59
2021/04/24 03:18:55;;;;;;;;;;;;;;;20.15;43.37;101457.88;5096837;28;502;-59
2021/04/24 03:21:21;;;;;;;;;;;;;;;19.78;44.57;101457.09;5096482;28;807;-52
2021/04/24 03:23:46;;;;;;;;;;;;;;;19.93;44.13;101459.00;5097095;28;1546;-60
2021/04/24 03:26:12;;;;;;;;;;;;;;;20.21;43.22;101461.44;5096687;28;767;-60
2021/04/24 03:28:37;;;;;;;;;;;;;;;20.32;43.18;101476.84;5096619;28;771;-59
2021/04/24 03:31:03;;;;;;;;;;;;;;;20.51;42.54;101475.13;5096536;28;843;-60
2021/04/24 03:33:28;;;;;;;;;;;;;;;20.37;42.88;101484.28;5096145;28;1005;-60
2021/04/24 03:35:54;;;;;;;;;;;;;;;20.18;43.24;101491.25;5096413;28;1918;-60
2021/04/24 03:38:19;;;;;;;;;;;;;;;20.52;42.47;101482.31;5095704;28;964;-59
2021/04/24 03:40:44;;;;;;;;;;;;;;;20.20;43.28;101485.44;5096453;28;767;-60
2021/04/24 03:43:10;;;;;;;;;;;;;;;20.10;43.45;101493.75;5078631;28;811;-58
2021/04/24 03:45:36;;;;;;;;;;;;;;;20.35;42.87;101503.91;5096480;28;1534;-51
2021/04/24 03:48:01;;;;;;;;;;;;;;;20.11;43.66;101510.06;5096128;28;951;-55
2021/04/24 03:50:26;;;;;;;;;;;;;;;20.20;43.44;101506.72;5096630;28;787;-57
2021/04/24 03:52:52;;;;;;;;;;;;;;;20.33;42.92;101511.66;5096595;28;748;-59
2021/04/24 03:55:17;;;;;;;;;;;;;;;20.11;43.70;101503.72;5096306;28;1910;-52
2021/04/24 03:57:43;;;;;;;;;;;;;;;20.27;43.01;101518.28;5096582;28;752;-61
2021/04/24 04:00:09;;;;;;;;;;;;;;;20.38;43.09;101519.09;5095053;28;962;-55
2021/04/24 04:02:47;;;;;;;;;;;;;;;20.35;43.07;101526.81;5095928;28;947;-52
2021/04/24 04:05:13;;;;;;;;;;;;;;;20.22;43.12;101532.94;5098594;28;905;-59
2021/04/24 04:07:38;;;;;;;;;;;;;;;20.58;42.45;101529.22;5100264;28;772;-59
2021/04/24 04:10:04;;;;;;;;;;;;;;;20.64;42.32;101536.41;5100372;28;815;-55
2021/04/24 04:12:29;;;;;;;;;;;;;;;20.15;43.24;101540.69;5089640;28;1343;-53
2021/04/24 04:14:55;;;;;;;;;;;;;;;20.28;42.95;101547.56;5079742;28;1044;-60
2021/04/24 04:17:20;;;;;;;;;;;;;;;20.30;42.80;101550.88;5101020;28;1930;-57
2021/04/24 04:19:46;;;;;;;;;;;;;;;20.07;43.39;101549.56;5120496;28;759;-60
2021/04/24 04:22:11;;;;;;;;;;;;;;;20.27;43.00;101562.47;5120550;28;790;-53
2021/04/24 04:24:37;;;;;;;;;;;;;;;20.48;42.29;101566.84;5120664;28;890;-52
2021/04/24 04:27:02;;;;;;;;;;;;;;;20.28;43.02;101569.66;5120512;28;881;-58
2021/04/24 04:29:28;;;;;;;;;;;;;;;20.35;43.05;101572.97;5088835;28;1189;-59
2021/04/24 04:31:53;;;;;;;;;;;;;;;20.47;42.52;101573.47;5099479;28;1013;-59
2021/04/24 04:34:19;;;;;;;;;;;;;;;20.24;42.85;101577.66;5099702;28;831;-63
2021/04/24 04:36:44;;;;;;;;;;;;;;;20.32;42.84;101581.81;5100041;28;1910;-60
2021/04/24 04:39:10;;;;;;;;;;;;;;;20.28;43.01;101583.47;5099723;28;764;-62
2021/04/24 04:41:35;;;;;;;;;;;;;;;20.33;42.61;101581.53;5100181;28;795;-55
2021/04/24 04:44:00;;;;;;;;;;;;;;;20.64;42.34;101588.91;5099919;28;878;-59
2021/04/24 04:46:26;;;;;;;;;;;;;;;20.25;42.89;101598.66;5099734;28;1566;-60
2021/04/24 04:48:51;;;;;;;;;;;;;;;20.41;42.75;101612.44;5099490;28;743;-60
2021/04/24 04:51:17;;;;;;;;;;;;;;;20.50;42.62;101606.06;5099564;28;751;-61
2021/04/24 04:53:43;;;;;;;;;;;;;;;20.39;42.64;101601.69;5099551;28;889;-59
2021/04/24 04:56:08;;;;;;;;;;;;;;;20.18;43.13;101600.88;5099584;28;1985;-60
2021/04/24 04:58:34;;;;;;;;;;;;;;;20.25;43.08;101603.38;5099511;28;752;-58
2021/04/24 05:00:59;;;;;;;;;;;;;;;20.11;43.31;101614.97;5099229;28;747;-55
2021/04/24 05:03:25;;;;;;;;;;;;;;;20.53;42.47;101615.75;5099074;28;990;-56
2021/04/24 05:05:50;;;;;;;;;;;;;;;20.76;41.88;101607.97;5099338;28;748;-55
2021/04/24 05:08:17;;;;;;;;;;;;;;;20.81;41.94;101614.28;5099388;28;803;-62
2021/04/24 05:10:42;;;;;;;;;;;;;;;20.54;42.48;101619.31;5099088;28;847;-61
2021/04/24 05:13:08;;;;;;;;;;;;;;;20.76;41.97;101616.25;5082815;28;1131;-52
2021/04/24 05:15:33;;;;;;;;;;;;;;;20.75;42.04;101620.97;5078548;28;1905;-53
2021/04/24 05:17:59;;;;;;;;;;;;;;;20.95;41.55;101619.22;5091056;28;1267;-60
2021/04/24 05:20:24;;;;;;;;;;;;;;;21.08;41.14;101615.84;5119396;28;767;-60
2021/04/24 05:22:50;;;;;;;;;;;;;;;20.93;41.55;101616.75;5119477;28;798;-59
2021/04/24 05:25:16;;;;;;;;;;;;;;;20.98;41.52;101611.19;5119692;28;751;-60
2021/04/24 05:27:46;;;;;;;;;;;;;;;21.11;41.08;101604.22;5119387;28;799;-54
2021/04/24 05:30:11;;;;;;;;;;;;;;;20.85;41.86;101595.22;5119172;28;763;-56
2021/04/24 05:32:37;;;;;;;;;;;;;;;20.79;41.73;101599.09;5118854;28;981;-47
2021/04/24 05:35:03;;;;;;;;;;;;;;;21.02;41.29;101586.56;5119380;28;847;-59
2021/04/24 05:37:28;;;;;;;;;;;;;;;21.13;41.18;101590.94;5119292;28;1917;-50
2021/04/24 05:39:56;;;;;;;;;;;;;;;21.16;41.06;101595.88;5119101;28;818;-50
2021/04/24 05:42:21;;;;;;;;;;;;;;;21.08;41.21;101588.19;5119149;28;818;-53
2021/04/24 05:44:46;;;;;;;;;;;;;;;21.08;41.38;101593.72;5118841;28;751;-53
2021/04/24 05:47:12;;;;;;;;;;;;;;;20.96;41.38;101584.94;5103968;28;1684;-55
2021/04/24 05:49:37;;;;;;;;;;;;;;;20.77;41.95;101593.03;5098427;28;743;-54
2021/04/24 05:52:04;;;;;;;;;;;;;;;20.81;42.18;101591.38;5098332;28;830;-53
2021/04/24 05:54:29;;;;;;;;;;;;;;;20.92;41.87;101586.63;5098388;28;755;-53
2021/04/24 05:56:55;;;;;;;;;;;;;;;20.91;41.88;101599.59;5098546;28;1913;-53
2021/04/24 05:59:20;;;;;;;;;;;;;;;20.73;41.92;101587.22;5098178;28;804;-50
2021/04/24 06:01:46;;;;;;;;;;;;;;;21.10;41.37;101588.75;5097726;28;1021;-59
2021/04/24 06:04:11;;;;;;;;;;;;;;;20.85;41.96;101592.44;5098452;28;764;-54
2021/04/24 06:06:37;;;;;;;;;;;;;;;20.99;41.58;101606.50;5098240;28;771;-54
2021/04/24 06:09:02;;;;;;;;;;;;;;;21.25;41.00;101595.28;5098267;28;747;-56
2021/04/24 06:11:28;;;;;;;;;;;;;;;20.87;41.86;101603.22;5077918;28;1182;-59
2021/04/24 06:13:53;;;;;;;;;;;;;;;20.65;42.49;101604.34;5077663;28;1007;-58
2021/04/24 06:16:19;;;;;;;;;;;;;;;20.57;42.54;101599.44;5079775;28;1910;-58
2021/04/24 06:18:44;;;;;;;;;;;;;;;20.93;41.77;101591.88;5118227;28;815;-58
2021/04/24 06:21:10;;;;;;;;;;;;;;;20.85;41.85;101601.56;5118106;28;826;-54
2021/04/24 06:23:35;;;;;;;;;;;;;;;20.82;41.81;101596.59;5118590;28;819;-54
2021/04/24 06:26:01;;;;;;;;;;;;;;;21.00;41.52;101599.88;5118085;28;827;-55
2021/04/24 06:28:26;;;;;;;;;;;;;;;20.94;41.90;101603.75;5118068;28;833;-59
2021/04/24 06:30:52;;;;;;;;;;;;;;;20.71;42.15;101606.03;5118111;28;764;-58
2021/04/24 06:33:17;;;;;;;;;;;;;;;21.01;41.40;101605.09;5117595;28;958;-55
2021/04/24 06:35:43;;;;;;;;;;;;;;;20.61;42.32;101603.28;5118010;28;1974;-58
2021/04/24 06:38:08;;;;;;;;;;;;;;;20.69;42.47;101605.50;5118044;28;818;-53
2021/04/24 06:40:33;;;;;;;;;;;;;;;20.82;41.91;101593.84;5117720;28;799;-58
2021/04/24 06:42:59;;;;;;;;;;;;;;;20.77;42.24;101599.38;5117896;28;807;-56
2021/04/24 06:45:25;;;;;;;;;;;;;;;21.00;41.51;101608.16;5099060;28;924;-58
2021/04/24 06:47:50;;;;;;;;;;;;;;;21.05;41.57;101608.09;5097114;28;1720;-57
2021/04/24 06:50:16;;;;;;;;;;;;;;;20.87;41.85;101597.69;5097503;28;815;-58
2021/04/24 06:52:41;;;;;;;;;;;;;;;20.87;41.91;101592.97;5097840;28;779;-57
2021/04/24 06:55:07;;;;;;;;;;;;;;;20.77;42.16;101602.16;5097201;28;751;-53
2021/04/24 06:57:32;;;;;;;;;;;;;;;20.79;42.19;101602.69;5097567;28;1976;-58
2021/04/24 06:59:58;;;;;;;;;;;;;;;20.82;41.87;101604.09;5097085;28;747;-57
2021/04/24 07:02:23;;;;;;;;;;;;;;;20.63;42.55;101596.34;5096542;28;950;-58
2021/04/24 07:04:49;;;;;;;;;;;;;;;20.80;42.14;101598.00;5097266;28;787;-55
2021/04/24 07:07:14;;;;;;;;;;;;;;;20.79;42.11;101596.34;5096954;28;807;-58
2021/04/24 07:09:40;;;;;;;;;;;;;;;21.19;41.26;101595.31;5097061;28;538;-59
2021/04/24 07:12:05;;;;;;;;;;;;;;;21.14;41.05;101588.97;5089617;28;1123;-59
2021/04/24 07:14:31;;;;;;;;;;;;;;;20.69;42.14;101586.13;5058759;28;1162;-59
2021/04/24 07:16:56;;;;;;;;;;;;;;;21.03;41.52;101588.22;5089235;28;1919;-54
2021/04/24 07:19:21;;;;;;;;;;;;;;;21.13;41.21;101592.88;5117309;28;751;-53
2021/04/24 07:21:47;;;;;;;;;;;;;;;20.82;42.03;101584.72;5117088;28;763;-59
2021/04/24 07:24:12;;;;;;;;;;;;;;;20.63;42.37;101592.78;5117261;28;780;-58
2021/04/24 07:26:38;;;;;;;;;;;;;;;21.07;41.58;101589.31;5117575;28;756;-59
2021/04/24 07:29:04;;;;;;;;;;;;;;;21.10;41.17;101588.75;5117066;28;853;-59
2021/04/24 07:31:29;;;;;;;;;;;;;;;21.20;41.25;101591.44;5116946;28;961;-59
2021/04/24 07:33:55;;;;;;;;;;;;;;;21.24;40.98;101591.72;5117031;28;838;-59
2021/04/24 07:36:20;;;;;;;;;;;;;;;21.39;40.90;101590.75;5116973;28;1921;-54
2021/04/24 07:38:46;;;;;;;;;;;;;;;21.37;40.81;101599.34;5116745;28;848;-60
2021/04/24 07:41:11;;;;;;;;;;;;;;;21.48;40.44;101600.13;5116703;28;776;-55
2021/04/24 07:43:37;;;;;;;;;;;;;;;21.50;40.32;101595.16;5117250;28;748;-56
2021/04/24 07:46:02;;;;;;;;;;;;;;;21.55;40.47;101597.06;5111986;28;1538;-59
2021/04/24 07:48:28;;;;;;;;;;;;;;;21.39;40.53;101599.06;5095997;28;951;-61
2021/04/24 07:50:54;;;;;;;;;;;;;;;21.50;40.27;101589.59;5096563;28;800;-60
2021/04/24 07:53:20;;;;;;;;;;;;;;;21.45;40.65;101597.13;5096654;28;768;-60
2021/04/24 07:55:46;;;;;;;;;;;;;;;21.63;40.37;101599.22;5096306;28;1976;-59
2021/04/24 07:58:12;;;;;;;;;;;;;;;21.69;40.05;101591.72;5096541;28;763;-53
2021/04/24 08:00:37;;;;;;;;;;;;;;;21.65;40.37;101596.16;5096760;28;738;-55
2021/04/24 08:03:03;;;;;;;;;;;;;;;21.69;40.26;101591.72;5095709;28;902;-55
2021/04/24 08:05:29;;;;;;;;;;;;;;;21.88;39.62;101595.44;5096549;28;755;-56
2021/04/24 08:07:54;;;;;;;;;;;;;;;21.74;39.98;101593.59;5096363;28;846;-60
2021/04/24 08:10:20;;;;;;;;;;;;;;;21.82;39.95;101595.75;5096215;28;764;-59
2021/04/24 08:12:46;;;;;;;;;;;;;;;21.98;39.64;101593.66;5083405;28;1079;-61
2021/04/24 08:15:12;;;;;;;;;;;;;;;21.72;39.96;101596.66;5075998;28;1189;-57
2021/04/24 08:17:38;;;;;;;;;;;;;;;21.91;39.89;101598.72;5087712;28;1987;-55
2021/04/24 08:20:04;;;;;;;;;;;;;;;21.69;39.99;101592.53;5096228;28;902;-57
2021/04/24 08:22:30;;;;;;;;;;;;;;;21.77;39.88;101591.09;5096228;28;779;-60
2021/04/24 08:24:55;;;;;;;;;;;;;;;21.86;39.72;101591.28;5096507;28;807;-59
2021/04/24 08:27:20;;;;;;;;;;;;;;;21.45;40.62;101597.13;5096293;28;851;-60
2021/04/24 08:29:46;;;;;;;;;;;;;;;21.94;39.54;101587.91;5096086;28;913;-54
2021/04/24 08:32:12;;;;;;;;;;;;;;;22.02;39.48;101584.50;5095847;28;970;-53
2021/04/24 08:34:37;;;;;;;;;;;;;;;21.36;40.76;101588.56;5078371;28;783;-60
2021/04/24 08:37:03;;;;;;;;;;;;;;;20.31;43.25;101585.66;5095961;28;1973;-60
2021/04/24 08:39:29;;;;;;;;;;;;;;;20.57;42.61;101583.69;5095979;28;755;-61
2021/04/24 08:41:54;;;;;;;;;;;;;;;20.88;42.09;101588.31;5096198;28;767;-54
2021/04/24 08:44:19;;;;;;;;;;;;;;;21.20;41.26;101580.38;5095897;28;863;-61
2021/04/24 08:46:45;;;;;;;;;;;;;;;21.15;41.50;101579.59;5095650;28;1626;-61
2021/04/24 08:49:13;;;;;;;;;;;;;;;20.83;41.98;101586.38;5096532;28;739;-53
2021/04/24 08:51:39;;;;;;;;;;;;;;;20.94;42.08;101592.69;5097240;28;898;-55
2021/04/24 08:54:04;;;;;;;;;;;;;;;20.82;41.92;101590.25;5064798;28;1216;-59
2021/04/24 08:56:30;;;;;;;;;;;;;;;20.75;42.15;101585.03;5099441;28;2273;-60
2021/04/24 08:58:56;;;;;;;;;;;;;;;21.20;41.33;101588.66;5099744;28;803;-60
2021/04/24 09:01:22;;;;;;;;;;;;;;;21.40;40.68;101581.34;5099109;28;954;-59
2021/04/24 09:03:47;;;;;;;;;;;;;;;21.19;41.20;101572.38;5099422;28;842;-61
2021/04/24 09:06:12;;;;;;;;;;;;;;;21.06;41.46;101576.59;5099359;28;819;-53
2021/04/24 09:08:38;;;;;;;;;;;;;;;20.77;42.29;101577.28;5099907;28;858;-60
2021/04/24 09:11:04;;;;;;;;;;;;;;;20.92;41.63;101570.03;5099077;28;898;-61
2021/04/24 09:13:30;;;;;;;;;;;;;;;21.22;41.19;101571.78;5079853;28;1083;-60
2021/04/24 09:15:55;;;;;;;;;;;;;;;21.32;40.79;101568.13;5078962;28;1918;-60
2021/04/24 09:18:21;;;;;;;;;;;;;;;21.52;40.36;101562.50;5096681;28;1006;-60
2021/04/24 09:20:47;;;;;;;;;;;;;;;21.59;40.15;101553.03;5099424;28;855;-60
2021/04/24 09:23:13;;;;;;;;;;;;;;;21.63;40.24;101554.09;5099077;28;800;-57
2021/04/24 09:25:56;;;;;;;;;;;;;;;21.81;39.86;101544.25;5098905;28;763;-60
2021/04/24 09:28:25;;;;;;;;;;;;;;;21.91;39.69;101543.34;5081028;28;831;-59
2021/04/24 09:30:51;;;;;;;;;;;;;;;21.80;39.94;101539.88;5099099;28;752;-55
2021/04/24 09:33:16;;;;;;;;;;;;;;;21.93;39.60;101530.06;5098687;28;946;-60
2021/04/24 09:35:45;;;;;;;;;;;;;;;21.84;39.78;101527.91;5098824;28;1987;-55
2021/04/24 09:38:14;;;;;;;;;;;;;;;22.04;39.57;101523.28;5099205;28;864;-61
2021/04/24 09:40:40;;;;;;;;;;;;;;;21.07;41.34;101527.63;5080315;28;940;-61
2021/04/24 09:43:07;;;;;;;;;;;;;;;20.90;42.00;101519.72;5098709;28;795;-54
2021/04/24 09:45:40;;;;;;;;;;;;;;;20.79;42.02;101518.94;5098401;28;1530;-56
2021/04/24 09:48:18;;;;;;;;;;;;;;;21.29;41.11;101516.16;5098175;28;946;-52
2021/04/24 09:50:43;;;;;;;;;;;;;;;21.70;40.13;101518.63;5098609;28;791;-59
2021/04/24 09:53:19;;;;;;;;;;;;;;;21.73;40.02;101509.75;5098371;28;715;-61
2021/04/24 09:55:45;;;;;;;;;;;;;;;21.94;39.69;101510.38;5098469;28;1917;-54
2021/04/24 09:58:29;;;;;;;;;;;;;;;21.79;40.07;101519.66;5098481;28;783;-61
2021/04/24 10:01:13;;;;;;;;;;;;;;;22.07;39.33;101503.31;5098058;28;862;-52
2021/04/24 10:03:39;;;;;;;;;;;;;;;21.88;39.51;101506.84;5097417;28;883;-60
2021/04/24 10:06:20;;;;;;;;;;;;;;;21.49;40.65;101501.31;5098162;28;799;-60
2021/04/24 10:08:45;;;;;;;;;;;;;;;21.01;41.65;101502.81;5098413;28;819;-60
2021/04/24 10:11:21;;;;;;;;;;;;;;;21.13;41.46;101496.91;5079732;28;823;-60
2021/04/24 10:13:47;;;;;;;;;;;;;;;21.42;40.63;101501.69;5059609;28;1325;-61
2021/04/24 10:16:12;;;;;;;;;;;;;;;21.59;40.31;101492.13;5077928;28;1913;-53
2021/04/24 10:18:37;;;;;;;;;;;;;;;21.64;40.21;101486.56;5079672;28;1341;-53
2021/04/24 10:21:03;;;;;;;;;;;;;;;21.86;39.77;101481.38;5097608;28;747;-61
2021/04/24 10:23:28;;;;;;;;;;;;;;;21.80;39.75;101485.31;5098002;28;807;-60
2021/04/24 10:25:54;;;;;;;;;;;;;;;21.90;39.51;101475.25;5079659;28;1433;-60
2021/04/24 10:28:19;;;;;;;;;;;;;;;22.00;39.40;101475.16;5098062;28;740;-60
2021/04/24 10:30:45;;;;;;;;;;;;;;;22.00;39.62;101464.88;5097720;28;850;-60
2021/04/24 10:33:10;;;;;;;;;;;;;;;22.13;39.01;101468.91;5097327;28;947;-60
2021/04/24 10:35:36;;;;;;;;;;;;;;;21.45;40.50;101470.66;5079173;28;1984;-60
2021/04/24 10:38:02;;;;;;;;;;;;;;;21.33;40.75;101467.44;5097669;28;747;-55
2021/04/24 10:40:28;;;;;;;;;;;;;;;20.61;42.25;101459.59;5097484;28;831;-60
2021/04/24 10:42:54;;;;;;;;;;;;;;;21.10;41.60;101455.19;5079237;28;955;-59
2021/04/24 10:45:29;;;;;;;;;;;;;;;21.46;40.45;101454.88;5097737;28;768;-52
2021/04/24 10:47:55;;;;;;;;;;;;;;;21.68;40.33;101459.97;5091504;28;950;-60
2021/04/24 10:50:25;;;;;;;;;;;;;;;21.90;39.75;101450.34;5097306;28;744;-60
2021/04/24 10:52:54;;;;;;;;;;;;;;;21.90;39.71;101451.16;5097333;28;867;-64
2021/04/24 10:55:24;;;;;;;;;;;;;;;22.13;39.34;101454.22;5079727;28;776;-59
2021/04/24 10:57:50;;;;;;;;;;;;;;;22.11;39.27;101462.00;5097315;28;1906;-57
2021/04/24 11:00:20;;;;;;;;;;;;;;;22.18;39.11;101455.00;5097473;28;751;-59
2021/04/24 11:02:48;;;;;;;;;;;;;;;21.34;40.93;101452.50;5096931;28;962;-58
2021/04/24 11:05:42;;;;;;;;;;;;;;;21.43;40.92;101444.41;5097190;28;908;-58
2021/04/24 11:08:08;;;;;;;;;;;;;;;20.78;42.41;101446.25;5094209;28;1325;-61
2021/04/24 11:10:40;;;;;;;;;;;;;;;21.45;40.68;101453.25;5096383;28;864;-59
2021/04/24 11:13:06;;;;;;;;;;;;;;;21.74;40.23;101456.03;5096806;28;1287;-59
2021/04/24 11:15:32;;;;;;;;;;;;;;;21.63;40.47;101455.31;5095973;28;1923;-60
2021/04/24 11:17:58;;;;;;;;;;;;;;;21.79;40.15;101455.16;5078832;28;1006;-61
2021/04/24 11:20:50;;;;;;;;;;;;;;;21.83;39.87;101453.44;5078997;28;752;-63
2021/04/24 11:23:41;;;;;;;;;;;;;;;21.91;39.93;101458.34;5092860;28;1689;-58
2021/04/24 11:26:09;;;;;;;;;;;;;;;22.07;39.48;101466.50;5096879;28;783;-58
2021/04/24 11:28:53;;;;;;;;;;;;;;;22.10;39.29;101463.94;5096743;28;859;-57
2021/04/24 11:31:19;;;;;;;;;;;;;;;21.66;40.23;101464.97;5096280;28;1002;-61
2021/04/24 11:33:45;;;;;;;;;;;;;;;21.48;40.81;101459.00;5078599;28;1314;-60
2021/04/24 11:41:29;;;;;;;;;;;;;;;21.66;40.16;101476.06;5096771;28;743;-61
2021/04/24 11:43:55;;;;;;;;;;;;;;;21.80;40.13;101468.69;5095418;28;885;-55
2021/04/24 11:46:34;;;;;;;;;;;;;;;21.90;40.01;101464.19;5095832;28;1629;-60
2021/04/24 11:49:02;;;;;;;;;;;;;;;21.97;39.55;101461.91;5078619;28;1236;-59
2021/04/24 11:51:35;;;;;;;;;;;;;;;22.05;39.55;101466.78;5096296;28;826;-59
2021/04/24 11:54:00;;;;;;;;;;;;;;;21.97;39.66;101459.94;5096895;28;763;-58
2021/04/24 11:56:26;;;;;;;;;;;;;;;21.57;40.57;101461.19;5096325;28;1984;-57
2021/04/24 11:58:51;;;;;;;;;;;;;;;21.01;41.88;101452.19;5096357;28;775;-58
2021/04/24 12:01:18;;;;;;;;;;;;;;;20.43;43.12;101461.91;5097106;28;1021;-59
2021/04/24 12:03:43;;;;;;;;;;;;;;;21.01;42.14;101457.72;5116682;28;822;-59
2021/04/24 12:06:09;;;;;;;;;;;;;;;21.58;40.61;101455.34;5116688;28;778;-59
2021/04/24 12:08:34;;;;;;;;;;;;;;;21.69;40.27;101447.78;5116778;28;731;-59
2021/04/24 12:11:00;;;;;;;;;;;;;;;21.90;39.68;101445.63;5116505;28;751;-59
2021/04/24 12:13:25;;;;;;;;;;;;;;;21.84;40.09;101444.84;5079762;28;1123;-60
2021/04/24 12:15:51;;;;;;;;;;;;;;;21.38;41.05;101445.28;5096516;28;1905;-59
2021/04/24 12:18:16;;;;;;;;;;;;;;;21.84;40.10;101442.09;5095853;28;962;-58
2021/04/24 12:20:43;;;;;;;;;;;;;;;21.91;39.91;101446.44;5096159;28;779;-59
2021/04/24 12:23:12;;;;;;;;;;;;;;;21.90;39.90;101439.28;5096186;28;903;-60
2021/04/24 12:25:39;;;;;;;;;;;;;;;21.99;39.69;101434.72;5078683;28;1110;-59
2021/04/24 12:28:05;;;;;;;;;;;;;;;21.22;41.45;101427.97;5100161;28;1002;-60
2021/04/24 12:30:31;;;;;;;;;;;;;;;21.18;41.62;101429.66;5081967;28;839;-59
2021/04/24 12:32:58;;;;;;;;;;;;;;;20.38;43.37;101431.53;5099726;28;1013;-59
2021/04/24 12:35:28;;;;;;;;;;;;;;;21.13;41.80;101418.66;5082116;28;1416;-59
2021/04/24 12:38:00;;;;;;;;;;;;;;;21.46;41.01;101413.38;5099769;28;1909;-59
2021/04/24 12:40:26;;;;;;;;;;;;;;;21.79;40.27;101410.88;5099742;28;775;-59
2021/04/24 12:42:51;;;;;;;;;;;;;;;21.68;40.36;101412.91;5099887;28;858;-60
2021/04/24 12:45:21;;;;;;;;;;;;;;;21.77;40.20;101407.56;5099606;28;796;-60
2021/04/24 12:47:47;;;;;;;;;;;;;;;21.65;40.66;101419.84;5098312;28;1574;-58
2021/04/24 12:50:37;;;;;;;;;;;;;;;21.49;41.04;101405.31;5099613;28;791;-58
2021/04/24 12:53:02;;;;;;;;;;;;;;;21.47;40.87;101402.00;5099413;28;823;-58
2021/04/24 12:55:28;;;;;;;;;;;;;;;21.50;40.87;101401.44;5099610;28;790;-58